Time;durP1;ratioP1;P1;durP2;ratioP2;P2;SDS_P1;SDS_P2;PMS_P1;PMS_P2;Temp;Humidity;BMP_temperature;BMP_pressure;BME280_temperature;BME280_humidity;BME280_pressure;Samples;Min_cycle;Max_cycle;Signal;HPM_P1;HPM_P2
2023/04/01 00:03:03;;;;;;;27.80;2.20;;;;;;;;;;5058330;28;20090;-60
2023/04/01 00:06:43;;;;;;;5.75;1.50;;;;;;;;;;5073671;28;20443;-57
2023/04/01 00:10:25;;;;;;;4.38;1.52;;;;;;;;;;5063970;28;20458;-60
2023/04/01 00:14:05;;;;;;;7.80;1.73;;;;;;;;;;5063108;28;20403;-56
2023/04/01 00:17:45;;;;;;;5.80;1.70;;;;;;;;;;5059911;28;20068;-58
2023/04/01 00:21:27;;;;;;;6.72;1.65;;;;;;;;;;5062564;28;20496;-59
2023/04/01 00:25:07;;;;;;;8.40;1.80;;;;;;;;;;5066017;28;20056;-58
2023/04/01 00:28:48;;;;;;;5.35;1.58;;;;;;;;;;5062729;28;20044;-58
2023/04/01 00:32:28;;;;;;;5.70;1.85;;;;;;;;;;5069324;28;20097;-57
2023/04/01 00:36:09;;;;;;;5.28;1.60;;;;;;;;;;5075734;28;20054;-58
2023/04/01 00:39:49;;;;;;;7.72;1.92;;;;;;;;;;5068693;28;20697;-57
2023/04/01 00:43:30;;;;;;;5.50;1.48;;;;;;;;;;5058069;28;20048;-55
2023/04/01 00:47:09;;;;;;;7.30;1.58;;;;;;;;;;5061450;28;20040;-59
2023/04/01 00:50:51;;;;;;;8.32;1.98;;;;;;;;;;5067250;28;20056;-63
2023/04/01 00:54:31;;;;;;;9.02;2.42;;;;;;;;;;5062558;28;20577;-59
2023/04/01 00:57:36;;;;;;;11.77;2.08;;;;;;;;;;5064641;28;20048;-58
2023/04/01 01:00:07;;;;;;;9.32;1.88;;;;;;;;;;5064082;28;20071;-58
2023/04/01 01:02:34;;;;;;;8.13;2.10;;;;;;;;;;5070133;28;20055;-59
2023/04/01 01:05:40;;;;;;;8.80;1.80;;;;;;;;;;5064998;28;20070;-57
2023/04/01 01:09:07;;;;;;;9.93;2.72;;;;;;;;;;5071363;28;20045;-59
2023/04/01 01:12:21;;;;;;;7.90;1.90;;;;;;;;;;5064109;28;20435;-58
2023/04/01 01:15:53;;;;;;;6.03;1.67;;;;;;;;;;5059850;28;20091;-59
2023/04/01 01:19:20;;;;;;;7.43;1.80;;;;;;;;;;5063078;28;20048;-58
2023/04/01 01:22:57;;;;;;;9.20;1.50;;;;;;;;;;4996073;28;20030;-58
2023/04/01 01:26:24;;;;;;;5.75;1.70;;;;;;;;;;5001161;28;20037;-58
2023/04/01 01:29:00;;;;;;;5.28;1.80;;;;;;;;;;4996432;28;20088;-55
2023/04/01 01:32:10;;;;;;;9.05;2.00;;;;;;;;;;4995510;28;20153;-58
2023/04/01 01:34:39;;;;;;;9.48;2.00;;;;;;;;;;4899938;29;20066;-59
2023/04/01 01:37:13;;;;;;;7.55;2.15;;;;;;;;;;4924576;29;20047;-61
2023/04/01 01:39:41;;;;;;;8.35;2.00;;;;;;;;;;4920848;29;20087;-58
2023/04/01 01:42:11;;;;;;;8.13;1.90;;;;;;;;;;4919991;29;20051;-56
2023/04/01 01:44:39;;;;;;;10.48;2.13;;;;;;;;;;4920089;29;20052;-55
2023/04/01 01:47:05;;;;;;;9.93;2.15;;;;;;;;;;4925892;29;20094;-59
2023/04/01 01:50:12;;;;;;;7.05;1.73;;;;;;;;;;4924964;29;20056;-60
2023/04/01 01:53:13;;;;;;;8.88;1.90;;;;;;;;;;4927008;29;20051;-65
2023/04/01 01:55:43;;;;;;;7.75;2.40;;;;;;;;;;4928235;29;20158;-56
2023/04/01 01:58:21;;;;;;;7.55;2.10;;;;;;;;;;4940430;28;20062;-57
2023/04/01 02:00:53;;;;;;;4.28;1.55;;;;;;;;;;4994040;28;20073;-58
2023/04/01 02:03:21;;;;;;;6.63;1.88;;;;;;;;;;4986417;28;22558;-58
2023/04/01 02:05:50;;;;;;;7.10;1.52;;;;;;;;;;4984510;28;20046;-59
2023/04/01 02:08:31;;;;;;;8.80;2.08;;;;;;;;;;4981640;28;20195;-58
2023/04/01 02:11:06;;;;;;;6.00;1.85;;;;;;;;;;5055338;28;20105;-58
2023/04/01 02:13:41;;;;;;;11.35;2.30;;;;;;;;;;5066411;28;20059;-59
2023/04/01 02:16:15;;;;;;;10.50;2.10;;;;;;;;;;5068921;28;20074;-59
2023/04/01 02:18:44;;;;;;;10.73;2.10;;;;;;;;;;5065940;28;20131;-58
2023/04/01 02:21:12;;;;;;;8.38;2.30;;;;;;;;;;5068165;28;20144;-56
2023/04/01 02:23:38;;;;;;;11.23;2.28;;;;;;;;;;5066591;28;20045;-59
2023/04/01 02:26:08;;;;;;;6.32;1.92;;;;;;;;;;5063603;28;20041;-58
2023/04/01 02:28:37;;;;;;;8.52;2.20;;;;;;;;;;5065948;28;20163;-57
2023/04/01 02:31:09;;;;;;;11.50;2.53;;;;;;;;;;5058518;28;21128;-58
2023/04/01 02:33:37;;;;;;;11.55;2.28;;;;;;;;;;5067593;28;20048;-55
2023/04/01 02:36:11;;;;;;;7.18;2.17;;;;;;;;;;5065937;28;20103;-58
2023/04/01 02:38:39;;;;;;;12.38;2.03;;;;;;;;;;5067541;28;20044;-58
2023/04/01 02:41:06;;;;;;;14.07;2.40;;;;;;;;;;5067042;28;20071;-59
2023/04/01 02:43:33;;;;;;;8.13;2.67;;;;;;;;;;5073582;28;20040;-56
2023/04/01 02:45:59;;;;;;;8.73;2.33;;;;;;;;;;5065071;28;20047;-57
2023/04/01 02:48:25;;;;;;;9.27;2.30;;;;;;;;;;5075233;28;20084;-58
2023/04/01 02:50:51;;;;;;;14.38;2.47;;;;;;;;;;5067775;28;20369;-56
2023/04/01 02:53:17;;;;;;;12.40;2.67;;;;;;;;;;5070637;28;20101;-58
2023/04/01 02:55:44;;;;;;;9.30;2.28;;;;;;;;;;5071007;28;20068;-55
2023/04/01 02:58:10;;;;;;;12.38;2.75;;;;;;;;;;5058468;28;20096;-57
2023/04/01 03:00:37;;;;;;;12.65;2.50;;;;;;;;;;5069703;28;20135;-58
2023/04/01 03:03:03;;;;;;;9.50;2.47;;;;;;;;;;5064261;28;20052;-57
2023/04/01 03:05:29;;;;;;;10.27;2.55;;;;;;;;;;5067568;28;20400;-56
2023/04/01 03:07:55;;;;;;;8.90;2.25;;;;;;;;;;5066363;28;20037;-58
2023/04/01 03:10:22;;;;;;;9.60;2.67;;;;;;;;;;5066789;28;20055;-59
2023/04/01 03:12:48;;;;;;;11.13;2.47;;;;;;;;;;5074668;28;20049;-61
2023/04/01 03:15:14;;;;;;;9.32;2.30;;;;;;;;;;5064966;28;20428;-55
2023/04/01 03:17:42;;;;;;;10.77;2.80;;;;;;;;;;5069959;28;20045;-58
2023/04/01 03:20:10;;;;;;;12.55;2.60;;;;;;;;;;5077049;28;20078;-57
2023/04/01 03:22:37;;;;;;;8.38;2.05;;;;;;;;;;5070689;28;20424;-58
2023/04/01 03:25:04;;;;;;;8.75;2.38;;;;;;;;;;5070601;28;20048;-56
2023/04/01 03:27:30;;;;;;;10.27;2.40;;;;;;;;;;5066859;28;20048;-58
2023/04/01 03:29:57;;;;;;;10.30;2.22;;;;;;;;;;5067149;28;20061;-57
2023/04/01 03:32:22;;;;;;;12.10;2.50;;;;;;;;;;5067465;28;20044;-60
2023/04/01 03:34:48;;;;;;;9.32;2.15;;;;;;;;;;5067116;28;20060;-55
2023/04/01 03:37:14;;;;;;;17.35;2.70;;;;;;;;;;5065336;28;20455;-56
2023/04/01 03:39:40;;;;;;;14.88;2.42;;;;;;;;;;5057669;28;20484;-58
2023/04/01 03:42:06;;;;;;;12.63;2.58;;;;;;;;;;5064838;28;20048;-58
2023/04/01 03:44:33;;;;;;;7.97;2.38;;;;;;;;;;5063224;28;20056;-58
2023/04/01 03:46:59;;;;;;;9.13;2.33;;;;;;;;;;5081948;28;20145;-59
2023/04/01 03:49:26;;;;;;;7.97;2.15;;;;;;;;;;5068011;28;20511;-59
2023/04/01 03:51:52;;;;;;;13.75;2.78;;;;;;;;;;5063075;28;20468;-57
2023/04/01 03:54:19;;;;;;;13.60;2.60;;;;;;;;;;5064861;28;20052;-59
2023/04/01 03:56:46;;;;;;;11.75;2.53;;;;;;;;;;5063782;28;20040;-57
2023/04/01 03:59:12;;;;;;;9.63;2.28;;;;;;;;;;5063840;28;20049;-61
2023/04/01 04:01:38;;;;;;;12.90;3.20;;;;;;;;;;5068294;28;20451;-60
2023/04/01 04:04:05;;;;;;;11.13;2.50;;;;;;;;;;5064938;28;20052;-59
2023/04/01 04:06:32;;;;;;;12.40;2.60;;;;;;;;;;5060307;28;20357;-57
2023/04/01 04:08:58;;;;;;;10.15;2.22;;;;;;;;;;5062806;28;20044;-59
2023/04/01 04:11:25;;;;;;;13.00;3.03;;;;;;;;;;5061340;28;20043;-60
2023/04/01 04:13:52;;;;;;;12.38;2.40;;;;;;;;;;5065908;28;22074;-59
2023/04/01 04:16:19;;;;;;;7.68;2.33;;;;;;;;;;5063522;28;20573;-58
2023/04/01 04:18:45;;;;;;;11.48;2.92;;;;;;;;;;5061783;28;20056;-60
2023/04/01 04:21:15;;;;;;;10.32;2.20;;;;;;;;;;5067838;28;20700;-57
2023/04/01 04:23:42;;;;;;;12.23;2.58;;;;;;;;;;5052161;28;20074;-57
2023/04/01 04:26:11;;;;;;;17.10;2.65;;;;;;;;;;5062405;28;20045;-58
2023/04/01 04:28:37;;;;;;;11.23;2.25;;;;;;;;;;5061877;28;20052;-61
2023/04/01 04:31:05;;;;;;;15.23;2.80;;;;;;;;;;5078191;28;20053;-59
2023/04/01 04:33:31;;;;;;;12.43;2.70;;;;;;;;;;5062970;28;20052;-57
2023/04/01 04:35:58;;;;;;;13.40;2.88;;;;;;;;;;5064292;28;20048;-58
2023/04/01 04:38:25;;;;;;;16.98;2.53;;;;;;;;;;5062879;28;20056;-57
2023/04/01 04:40:51;;;;;;;10.52;2.65;;;;;;;;;;5060303;28;20124;-61
2023/04/01 04:43:18;;;;;;;10.15;2.78;;;;;;;;;;5060926;28;20070;-60
2023/04/01 04:45:45;;;;;;;9.98;2.20;;;;;;;;;;5075431;28;20125;-57
2023/04/01 04:48:18;;;;;;;13.45;2.70;;;;;;;;;;5062503;28;20489;-56
2023/04/01 04:50:48;;;;;;;10.05;2.28;;;;;;;;;;5064059;28;20058;-56
2023/04/01 04:53:16;;;;;;;14.57;2.80;;;;;;;;;;5063996;28;20068;-61
2023/04/01 04:55:49;;;;;;;16.00;2.85;;;;;;;;;;5064789;28;20041;-59
2023/04/01 04:58:16;;;;;;;13.73;3.10;;;;;;;;;;5062411;28;20113;-57
2023/04/01 05:00:42;;;;;;;13.77;2.90;;;;;;;;;;5065277;28;20631;-58
2023/04/01 05:03:10;;;;;;;11.27;2.60;;;;;;;;;;5053198;28;20169;-59
2023/04/01 05:05:36;;;;;;;9.40;2.40;;;;;;;;;;5071858;28;20522;-60
2023/04/01 05:08:02;;;;;;;14.38;2.80;;;;;;;;;;5063215;28;20060;-58
2023/04/01 05:10:28;;;;;;;14.30;2.70;;;;;;;;;;5062309;28;20041;-57
2023/04/01 05:12:56;;;;;;;11.15;2.70;;;;;;;;;;5063222;28;20048;-57
2023/04/01 05:15:22;;;;;;;14.20;3.15;;;;;;;;;;5059879;28;20041;-57
2023/04/01 05:17:48;;;;;;;16.02;3.00;;;;;;;;;;5057082;28;20056;-57
2023/04/01 05:20:15;;;;;;;10.27;2.30;;;;;;;;;;5063453;28;20493;-59
2023/04/01 05:22:41;;;;;;;9.00;2.08;;;;;;;;;;5063269;28;20057;-58
2023/04/01 05:25:07;;;;;;;11.32;2.60;;;;;;;;;;5055404;28;20515;-58
2023/04/01 05:27:33;;;;;;;14.68;2.70;;;;;;;;;;5065908;28;20232;-57
2023/04/01 05:29:59;;;;;;;12.48;2.70;;;;;;;;;;5066507;28;20083;-56
2023/04/01 05:32:26;;;;;;;9.60;2.50;;;;;;;;;;5072418;28;20052;-57
2023/04/01 05:34:53;;;;;;;11.45;3.05;;;;;;;;;;5063451;28;20403;-59
2023/04/01 05:37:20;;;;;;;10.18;2.55;;;;;;;;;;5077546;28;20056;-59
2023/04/01 05:39:45;;;;;;;11.38;2.28;;;;;;;;;;5066689;28;20041;-57
2023/04/01 05:42:11;;;;;;;14.00;2.70;;;;;;;;;;5064147;28;20106;-58
2023/04/01 05:44:37;;;;;;;16.77;2.78;;;;;;;;;;5064293;28;20052;-60
2023/04/01 05:47:04;;;;;;;11.45;2.50;;;;;;;;;;5070650;28;20048;-58
2023/04/01 05:49:30;;;;;;;10.90;2.88;;;;;;;;;;5065692;28;20604;-59
2023/04/01 05:51:57;;;;;;;11.38;2.75;;;;;;;;;;5064896;28;20680;-58
2023/04/01 05:54:23;;;;;;;11.95;3.03;;;;;;;;;;5064069;28;20052;-58
2023/04/01 05:56:49;;;;;;;11.88;2.83;;;;;;;;;;5067118;28;20040;-58
2023/04/01 05:59:15;;;;;;;10.18;2.83;;;;;;;;;;5068002;28;20476;-57
2023/04/01 06:01:42;;;;;;;12.55;2.60;;;;;;;;;;5063231;28;20045;-58
2023/04/01 06:04:13;;;;;;;16.90;2.88;;;;;;;;;;5064264;28;20056;-57
2023/04/01 06:06:40;;;;;;;13.88;2.47;;;;;;;;;;5065572;28;20068;-56
2023/04/01 06:09:26;;;;;;;15.85;3.05;;;;;;;;;;5056061;28;20049;-56
2023/04/01 06:12:02;;;;;;;12.35;2.58;;;;;;;;;;5059741;28;20044;-60
2023/04/01 06:14:47;;;;;;;12.38;2.75;;;;;;;;;;5061738;28;20448;-58
2023/04/01 06:17:48;;;;;;;9.05;2.65;;;;;;;;;;5064752;28;20052;-56
2023/04/01 06:20:27;;;;;;;10.48;2.55;;;;;;;;;;5066757;28;20048;-58
2023/04/01 06:23:06;;;;;;;15.82;3.00;;;;;;;;;;5061762;28;20102;-59
2023/04/01 06:26:05;;;;;;;10.88;2.38;;;;;;;;;;5058528;28;20135;-60
2023/04/01 06:28:51;;;;;;;9.95;2.55;;;;;;;;;;5057712;28;20049;-58
2023/04/01 06:31:33;;;;;;;15.82;2.60;;;;;;;;;;5071221;28;20548;-61
2023/04/01 06:34:36;;;;;;;11.10;2.72;;;;;;;;;;5070869;28;20040;-59
2023/04/01 06:37:27;;;;;;;11.10;2.92;;;;;;;;;;5061691;28;20053;-58
2023/04/01 06:41:01;;;;;;;13.35;2.80;;;;;;;;;;5077641;28;20073;-59
2023/04/01 06:43:47;;;;;;;11.60;2.63;;;;;;;;;;4964829;28;20109;-60
2023/04/01 06:46:35;;;;;;;9.82;2.38;;;;;;;;;;4964314;28;20047;-59
2023/04/01 06:49:22;;;;;;;14.85;2.30;;;;;;;;;;4963347;28;20053;-59
2023/04/01 06:52:15;;;;;;;12.55;2.70;;;;;;;;;;4960904;28;20147;-61
2023/04/01 06:54:47;;;;;;;13.98;3.13;;;;;;;;;;4956866;28;20116;-60
2023/04/01 06:57:37;;;;;;;16.20;3.17;;;;;;;;;;4960305;28;20051;-59
2023/04/01 07:00:13;;;;;;;14.93;3.05;;;;;;;;;;4960709;28;20817;-57
2023/04/01 07:02:55;;;;;;;15.77;3.08;;;;;;;;;;4963441;28;20594;-66
2023/04/01 07:05:22;;;;;;;13.85;2.88;;;;;;;;;;4963979;28;20046;-62
2023/04/01 07:07:55;;;;;;;11.18;3.08;;;;;;;;;;4956492;28;20057;-62
2023/04/01 07:10:36;;;;;;;17.02;5.40;;;;;;;;;;4952967;28;20065;-60
2023/04/01 07:13:09;;;;;;;9.60;3.20;;;;;;;;;;4954207;28;20049;-59
2023/04/01 07:15:41;;;;;;;10.68;2.40;;;;;;;;;;4960116;28;20079;-62
2023/04/01 07:18:41;;;;;;;9.40;2.53;;;;;;;;;;5009242;28;20063;-60
2023/04/01 07:21:40;;;;;;;14.02;3.22;;;;;;;;;;5053618;28;20515;-60
2023/04/01 07:24:17;;;;;;;12.68;2.60;;;;;;;;;;5059464;28;20302;-63
2023/04/01 07:26:43;;;;;;;9.88;2.50;;;;;;;;;;5062370;28;20135;-65
2023/04/01 07:29:12;;;;;;;16.38;3.10;;;;;;;;;;5058228;28;20056;-60
2023/04/01 07:31:54;;;;;;;14.63;2.85;;;;;;;;;;5053469;28;20044;-60
2023/04/01 07:35:02;;;;;;;15.77;4.50;;;;;;;;;;5061881;28;20039;-62
2023/04/01 07:37:44;;;;;;;15.13;3.55;;;;;;;;;;5065731;28;20051;-63
2023/04/01 07:40:28;;;;;;;19.98;7.05;;;;;;;;;;5061702;28;20060;-65
2023/04/01 07:43:32;;;;;;;39.10;11.40;;;;;;;;;;5055594;28;20040;-61
2023/04/01 07:46:22;;;;;;;17.38;3.90;;;;;;;;;;5061902;28;20048;-62
2023/04/01 07:49:05;;;;;;;13.55;3.85;;;;;;;;;;5054258;28;21371;-60
2023/04/01 07:51:54;;;;;;;13.68;3.85;;;;;;;;;;5057857;28;20065;-61
2023/04/01 07:54:32;;;;;;;14.05;3.28;;;;;;;;;;5062479;28;20052;-63
2023/04/01 07:57:01;;;;;;;18.38;3.10;;;;;;;;;;5059160;28;20657;-61
2023/04/01 07:59:40;;;;;;;9.07;2.67;;;;;;;;;;5064013;28;20047;-62
2023/04/01 08:03:03;;;;;;;15.10;3.00;;;;;;;;;;5062277;28;20457;-64
2023/04/01 08:05:53;;;;;;;10.05;2.83;;;;;;;;;;4993546;28;20046;-62
2023/04/01 08:08:25;;;;;;;19.02;3.35;;;;;;;;;;4993425;28;20091;-61
2023/04/01 08:10:53;;;;;;;14.43;2.53;;;;;;;;;;4998726;28;20149;-61
2023/04/01 08:13:53;;;;;;;12.00;2.90;;;;;;;;;;4993877;28;20494;-62
2023/04/01 08:16:42;;;;;;;14.15;3.00;;;;;;;;;;4995644;28;20509;-63
2023/04/01 08:19:20;;;;;;;18.20;2.88;;;;;;;;;;4996029;28;20056;-64
2023/04/01 08:21:55;;;;;;;12.55;2.83;;;;;;;;;;5001892;28;20050;-62
2023/04/01 08:24:32;;;;;;;14.10;3.13;;;;;;;;;;4980045;28;20069;-63
2023/04/01 08:27:03;;;;;;;13.95;2.88;;;;;;;;;;4996751;28;20117;-63
2023/04/01 08:29:39;;;;;;;13.68;3.53;;;;;;;;;;4999782;28;20054;-65
2023/04/01 08:32:14;;;;;;;14.02;3.03;;;;;;;;;;4986989;28;20148;-64
2023/04/01 08:34:45;;;;;;;13.23;2.85;;;;;;;;;;5001812;28;20060;-61
2023/04/01 08:37:17;;;;;;;17.35;2.92;;;;;;;;;;5005018;28;20087;-62
2023/04/01 08:40:13;;;;;;;11.95;2.80;;;;;;;;;;5030883;28;20064;-63
2023/04/01 08:42:45;;;;;;;13.13;2.58;;;;;;;;;;5054160;28;20078;-63
2023/04/01 08:45:29;;;;;;;11.85;2.95;;;;;;;;;;5056568;28;20374;-63
2023/04/01 08:48:32;;;;;;;12.88;2.60;;;;;;;;;;5061754;28;20360;-62
2023/04/01 08:51:19;;;;;;;14.75;2.85;;;;;;;;;;5059147;28;20052;-67
2023/04/01 08:54:06;;;;;;;12.15;3.10;;;;;;;;;;5053745;28;20489;-62
2023/04/01 08:56:51;;;;;;;10.65;2.85;;;;;;;;;;5055273;28;20040;-64
2023/04/01 08:59:49;;;;;;;15.13;2.83;;;;;;;;;;5061556;28;20032;-63
2023/04/01 09:02:33;;;;;;;11.95;2.90;;;;;;;;;;5061053;28;20059;-63
2023/04/01 09:05:22;;;;;;;17.67;3.53;;;;;;;;;;5049922;28;20534;-63
2023/04/01 09:08:09;;;;;;;13.88;2.72;;;;;;;;;;5040338;28;20470;-61
2023/04/01 09:10:57;;;;;;;10.40;2.78;;;;;;;;;;5043674;28;20386;-62
2023/04/01 09:13:44;;;;;;;11.80;2.67;;;;;;;;;;5051366;28;20052;-61
2023/04/01 09:16:16;;;;;;;12.25;3.00;;;;;;;;;;5042281;28;20083;-63
2023/04/01 09:19:15;;;;;;;10.70;3.03;;;;;;;;;;5053203;28;20525;-63
2023/04/01 09:21:47;;;;;;;19.15;3.78;;;;;;;;;;5045566;28;20136;-66
2023/04/01 09:24:13;;;;;;;13.75;2.78;;;;;;;;;;5047748;28;20106;-66
2023/04/01 09:27:06;;;;;;;9.75;2.40;;;;;;;;;;5054499;28;20503;-62
2023/04/01 09:29:51;;;;;;;12.20;2.78;;;;;;;;;;5059566;28;20496;-65
2023/04/01 09:32:42;;;;;;;12.50;2.90;;;;;;;;;;5055619;28;20066;-61
2023/04/01 09:35:47;;;;;;;12.05;2.70;;;;;;;;;;5055001;28;20056;-62
2023/04/01 09:38:21;;;;;;;18.02;3.10;;;;;;;;;;5039651;28;20048;-63
2023/04/01 09:40:58;;;;;;;13.52;2.97;;;;;;;;;;5044452;28;20141;-62
2023/04/01 09:43:28;;;;;;;11.27;2.90;;;;;;;;;;5040567;28;20075;-62
2023/04/01 09:46:11;;;;;;;9.68;2.28;;;;;;;;;;5041314;28;20048;-63
2023/04/01 09:49:31;;;;;;;9.23;2.60;;;;;;;;;;5051468;28;20528;-68
2023/04/01 09:52:02;;;;;;;17.08;3.15;;;;;;;;;;5006180;28;20136;-61
2023/04/01 09:55:00;;;;;;;8.68;2.75;;;;;;;;;;5008111;28;20042;-63
2023/04/01 09:57:51;;;;;;;8.57;2.60;;;;;;;;;;5003283;28;20459;-66
2023/04/01 10:00:55;;;;;;;13.63;2.90;;;;;;;;;;5011811;28;20049;-62
2023/04/01 10:03:39;;;;;;;;;;;;;;;;;;5013691;28;20440;-63
2023/04/01 10:06:26;;;;;;;16.27;3.15;;;;;;;;;;5007974;28;19921;-63
2023/04/01 10:09:10;;;;;;;11.27;2.80;;;;;;;;;;5021550;28;20050;-61
2023/04/01 10:11:36;;;;;;;15.95;3.40;;;;;;;;;;4992347;28;20417;-61
2023/04/01 10:14:21;;;;;;;13.82;3.25;;;;;;;;;;5009706;28;20083;-59
2023/04/01 10:16:55;;;;;;;9.00;2.65;;;;;;;;;;5016741;28;20379;-62
2023/04/01 10:20:15;;;;;;;11.07;2.90;;;;;;;;;;5018669;28;20084;-61
2023/04/01 10:23:48;;;;;;;11.90;3.05;;;;;;;;;;5050598;28;20059;-63
2023/04/01 10:27:01;;;;;;;11.38;2.42;;;;;;;;;;5065383;28;20059;-62
2023/04/01 10:30:46;;;;;;;12.95;3.67;;;;;;;;;;5058958;28;20140;-62
2023/04/01 10:34:22;;;;;;;10.30;3.25;;;;;;;;;;5032121;28;20048;-62
2023/04/01 10:38:01;;;;;;;11.73;2.95;;;;;;;;;;5033816;28;20049;-63
2023/04/01 10:41:58;;;;;;;10.88;2.60;;;;;;;;;;5034589;28;20041;-61
2023/04/01 10:45:52;;;;;;;14.15;2.70;;;;;;;;;;5040668;28;20052;-63
2023/04/01 10:49:17;;;;;;;9.75;2.45;;;;;;;;;;5032902;28;20988;-61
2023/04/01 10:53:13;;;;;;;11.07;2.72;;;;;;;;;;5034633;28;20063;-63
2023/04/01 10:56:25;;;;;;;10.73;2.85;;;;;;;;;;4940179;29;20218;-61
2023/04/01 10:59:44;;;;;;;14.20;2.85;;;;;;;;;;4942280;29;20160;-62
2023/04/01 11:03:27;;;;;;;13.45;2.95;;;;;;;;;;4935897;28;20126;-65
2023/04/01 11:06:54;;;;;;;11.27;3.30;;;;;;;;;;4941757;28;20086;-63
2023/04/01 11:10:19;;;;;;;30.52;4.70;;;;;;;;;;4941218;28;20071;-62
2023/04/01 11:13:40;;;;;;;22.38;3.05;;;;;;;;;;4954235;28;20556;-57
2023/04/01 11:17:08;;;;;;;7.63;2.60;;;;;;;;;;4959269;28;22188;-61
2023/04/01 11:20:53;;;;;;;13.13;2.95;;;;;;;;;;4961892;28;20051;-60
2023/04/01 11:24:03;;;;;;;14.13;3.10;;;;;;;;;;4957872;28;20535;-61
2023/04/01 11:27:12;;;;;;;12.70;3.28;;;;;;;;;;4949479;28;20411;-65
2023/04/01 11:30:32;;;;;;;8.43;2.53;;;;;;;;;;5040222;28;20040;-65
2023/04/01 11:34:24;;;;;;;11.32;2.90;;;;;;;;;;5053646;28;20203;-63
2023/04/01 11:37:35;;;;;;;10.18;3.00;;;;;;;;;;5059105;28;20043;-61
2023/04/01 11:41:01;;;;;;;16.05;2.80;;;;;;;;;;5058545;28;20104;-66
2023/04/01 11:45:06;;;;;;;12.73;3.08;;;;;;;;;;4607711;27;15756942;-64
2023/04/01 11:48:42;;;;;;;11.95;3.17;;;;;;;;;;5154594;27;20055;-63
2023/04/01 11:52:17;;;;;;;16.15;3.10;;;;;;;;;;5159040;27;20268;-62
2023/04/01 11:55:52;;;;;;;16.58;3.85;;;;;;;;;;5154146;27;20038;-61
2023/04/01 11:59:48;;;;;;;11.45;3.13;;;;;;;;;;5158608;27;20038;-60
2023/04/01 12:02:47;;;;;;;9.95;2.70;;;;;;;;;;5072543;28;20045;-59
2023/04/01 12:06:39;;;;;;;16.23;3.33;;;;;;;;;;5062717;28;20047;-59
2023/04/01 12:10:24;;;;;;;11.30;3.67;;;;;;;;;;5069335;28;20044;-64
2023/04/01 12:14:10;;;;;;;19.48;3.67;;;;;;;;;;5067698;28;20575;-57
2023/04/01 12:17:31;;;;;;;15.52;3.47;;;;;;;;;;5064636;28;20083;-61
2023/04/01 12:21:04;;;;;;;17.83;3.85;;;;;;;;;;5064178;28;20072;-61
2023/04/01 12:24:56;;;;;;;10.68;2.67;;;;;;;;;;5074029;28;20113;-58
2023/04/01 12:28:45;;;;;;;18.05;3.95;;;;;;;;;;5071780;28;20262;-60
2023/04/01 12:31:58;;;;;;;19.35;4.80;;;;;;;;;;5070749;28;20048;-63
2023/04/01 12:35:36;;;;;;;13.35;3.60;;;;;;;;;;5069003;28;20044;-66
2023/04/01 12:39:18;;;;;;;10.75;3.10;;;;;;;;;;5092330;27;20057;-63
2023/04/01 12:42:48;;;;;;;19.20;4.03;;;;;;;;;;5158205;27;20042;-66
2023/04/01 12:46:05;;;;;;;12.57;3.35;;;;;;;;;;5155588;27;20070;-65
2023/04/01 12:49:23;;;;;;;15.75;4.70;;;;;;;;;;5153266;27;20042;-64
2023/04/01 12:52:46;;;;;;;13.18;3.55;;;;;;;;;;5159158;27;20426;-67
2023/04/01 12:56:32;;;;;;;9.38;2.85;;;;;;;;;;5144822;27;20047;-63
2023/04/01 13:00:17;;;;;;;9.98;2.95;;;;;;;;;;5140923;27;20153;-64
2023/04/01 13:04:08;;;;;;;14.60;3.13;;;;;;;;;;5144335;27;20035;-63
2023/04/01 13:07:27;;;;;;;12.90;3.20;;;;;;;;;;5141886;27;20047;-67
2023/04/01 13:11:15;;;;;;;12.57;3.35;;;;;;;;;;5140108;27;20031;-64
2023/04/01 13:14:47;;;;;;;12.73;3.50;;;;;;;;;;5137439;27;20525;-63
2023/04/01 13:18:25;;;;;;;14.68;3.50;;;;;;;;;;5137378;27;20035;-64
2023/04/01 13:21:54;;;;;;;17.80;3.20;;;;;;;;;;5142811;27;20431;-64
2023/04/01 13:25:21;;;;;;;9.43;2.55;;;;;;;;;;5137804;27;20267;-65
2023/04/01 13:29:07;;;;;;;13.75;3.22;;;;;;;;;;5133195;27;20446;-63
2023/04/01 13:32:40;;;;;;;7.88;2.95;;;;;;;;;;5140902;27;20046;-63
2023/04/01 13:35:46;;;;;;;13.13;3.67;;;;;;;;;;5138748;27;20042;-62
2023/04/01 13:39:25;;;;;;;10.77;3.00;;;;;;;;;;5138571;27;20051;-67
2023/04/01 13:42:48;;;;;;;10.82;3.20;;;;;;;;;;5127706;27;20053;-64
2023/04/01 13:46:00;;;;;;;15.10;3.28;;;;;;;;;;5130365;27;20047;-63
2023/04/01 13:49:10;;;;;;;13.95;2.40;;;;;;;;;;5136481;27;20525;-71
2023/04/01 13:53:15;;;;;;;12.65;2.70;;;;;;;;;;5140841;27;20049;-66
2023/04/01 13:56:53;;;;;;;12.27;2.97;;;;;;;;;;5036712;28;20152;-63
2023/04/01 14:00:28;;;;;;;21.88;5.95;;;;;;;;;;5045483;28;20044;-65
2023/04/01 14:03:54;;;;;;;12.52;3.20;;;;;;;;;;5038767;28;20129;-62
2023/04/01 14:07:00;;;;;;;16.20;3.58;;;;;;;;;;5039141;28;20045;-62
2023/04/01 14:10:44;;;;;;;15.00;2.80;;;;;;;;;;5039447;28;20041;-65
2023/04/01 14:13:55;;;;;;;12.65;3.30;;;;;;;;;;5036701;28;20098;-66
2023/04/01 14:17:04;;;;;;;19.70;4.00;;;;;;;;;;5036685;28;20398;-65
2023/04/01 14:20:56;;;;;;;20.38;3.95;;;;;;;;;;5034458;28;20053;-65
2023/04/01 14:24:03;;;;;;;11.43;3.00;;;;;;;;;;5040117;28;20092;-65
2023/04/01 14:27:15;;;;;;;15.73;3.47;;;;;;;;;;5131088;27;20038;-64
2023/04/01 14:30:56;;;;;;;14.93;3.88;;;;;;;;;;5136918;27;20035;-64
2023/04/01 14:34:15;;;;;;;12.73;3.00;;;;;;;;;;5141266;27;20034;-66
2023/04/01 14:37:44;;;;;;;13.80;3.08;;;;;;;;;;5135450;27;20038;-66
2023/04/01 14:41:30;;;;;;;16.65;3.20;;;;;;;;;;5139737;27;20147;-65
2023/04/01 14:45:25;;;;;;;15.18;3.22;;;;;;;;;;5143432;27;20417;-66
2023/04/01 14:48:50;;;;;;;11.52;3.42;;;;;;;;;;5133506;27;20192;-63
2023/04/01 14:52:10;;;;;;;16.50;3.50;;;;;;;;;;5143024;27;20378;-63
2023/04/01 14:55:51;;;;;;;20.92;3.63;;;;;;;;;;5136207;27;20053;-65
2023/04/01 14:59:20;;;;;;;17.25;3.83;;;;;;;;;;5139256;27;20412;-63
2023/04/01 15:03:19;;;;;;;16.95;4.45;;;;;;;;;;5133767;27;20106;-65
2023/04/01 15:06:25;;;;;;;21.83;4.28;;;;;;;;;;5136539;27;20715;-64
2023/04/01 15:10:00;;;;;;;19.75;3.88;;;;;;;;;;5128196;27;20088;-64
2023/04/01 15:13:33;;;;;;;15.73;3.90;;;;;;;;;;5136553;27;20131;-65
2023/04/01 15:16:46;;;;;;;17.38;3.45;;;;;;;;;;5139715;27;20054;-62
2023/04/01 15:20:46;;;;;;;16.38;4.22;;;;;;;;;;5145849;27;20067;-64
2023/04/01 15:24:14;;;;;;;14.90;4.00;;;;;;;;;;5092155;27;20045;-66
2023/04/01 15:27:43;;;;;;;17.27;3.60;;;;;;;;;;5139837;27;20046;-64
2023/04/01 15:31:02;;;;;;;15.48;3.72;;;;;;;;;;5142556;27;20042;-65
2023/04/01 15:34:31;;;;;;;19.50;4.40;;;;;;;;;;5146505;27;20046;-66
2023/04/01 15:38:07;;;;;;;14.80;3.78;;;;;;;;;;5139515;27;20142;-64
2023/04/01 15:41:51;;;;;;;18.33;3.83;;;;;;;;;;5139708;27;20513;-65
2023/04/01 15:45:12;;;;;;;14.10;4.40;;;;;;;;;;5141683;27;20075;-68
2023/04/01 15:48:34;;;;;;;19.95;3.50;;;;;;;;;;5136731;27;20054;-64
2023/04/01 15:52:26;;;;;;;12.32;3.75;;;;;;;;;;5140201;27;20049;-64
2023/04/01 15:56:12;;;;;;;13.10;3.95;;;;;;;;;;5135054;27;20505;-64
2023/04/01 15:59:36;;;;;;;13.00;3.97;;;;;;;;;;5140050;27;20070;-64
2023/04/01 16:02:50;;;;;;;16.10;4.63;;;;;;;;;;5137809;27;20061;-65
2023/04/01 16:06:09;;;;;;;15.93;4.57;;;;;;;;;;5132860;27;20069;-64
2023/04/01 16:09:50;;;;;;;19.33;4.60;;;;;;;;;;5144124;27;20034;-65
2023/04/01 16:13:45;;;;;;;16.42;4.57;;;;;;;;;;5140661;27;20050;-66
2023/04/01 16:16:51;;;;;;;15.65;4.75;;;;;;;;;;5149531;27;20530;-64
2023/04/01 16:20:41;;;;;;;16.65;4.35;;;;;;;;;;5137226;27;20070;-66
2023/04/01 16:24:32;;;;;;;16.55;4.55;;;;;;;;;;5139865;27;20073;-65
2023/04/01 16:28:02;;;;;;;16.33;4.45;;;;;;;;;;5137362;27;20071;-65
2023/04/01 16:31:27;;;;;;;16.38;4.28;;;;;;;;;;5140983;27;20592;-63
2023/04/01 16:35:07;;;;;;;20.70;4.28;;;;;;;;;;5142941;27;20330;-66
2023/04/01 16:38:29;;;;;;;18.55;4.57;;;;;;;;;;5147168;27;20054;-62
2023/04/01 16:42:10;;;;;;;16.38;4.40;;;;;;;;;;5126394;27;20043;-64
2023/04/01 16:45:19;;;;;;;21.85;4.93;;;;;;;;;;5137744;27;20539;-63
2023/04/01 16:49:05;;;;;;;15.02;4.47;;;;;;;;;;5147696;27;20387;-64
2023/04/01 16:52:08;;;;;;;19.70;5.07;;;;;;;;;;5141845;27;20061;-64
2023/04/01 16:55:59;;;;;;;15.40;4.97;;;;;;;;;;5138786;27;20141;-68
2023/04/01 16:59:25;;;;;;;18.02;4.90;;;;;;;;;;5140576;27;20043;-66
2023/04/01 17:02:54;;;;;;;20.42;4.47;;;;;;;;;;5140043;27;20412;-64
2023/04/01 17:06:26;;;;;;;17.08;4.78;;;;;;;;;;5142201;27;20050;-62
2023/04/01 17:09:47;;;;;;;19.75;5.13;;;;;;;;;;5139667;27;20077;-64
2023/04/01 17:13:12;;;;;;;23.05;5.30;;;;;;;;;;5140765;27;20558;-64
2023/04/01 17:16:42;;;;;;;20.48;5.07;;;;;;;;;;5139871;27;20695;-63
2023/04/01 17:20:37;;;;;;;24.83;5.07;;;;;;;;;;5134258;27;20758;-64
2023/04/01 17:24:20;;;;;;;18.98;4.97;;;;;;;;;;5136173;27;20047;-63
2023/04/01 17:28:01;;;;;;;26.95;5.55;;;;;;;;;;5140436;27;20066;-63
2023/04/01 17:31:26;;;;;;;21.80;5.10;;;;;;;;;;5127822;27;20103;-66
2023/04/01 17:35:11;;;;;;;22.98;5.18;;;;;;;;;;5135528;27;20035;-65
2023/04/01 17:38:21;;;;;;;19.55;5.30;;;;;;;;;;5141698;27;20152;-63
2023/04/01 17:42:03;;;;;;;24.70;5.43;;;;;;;;;;5137752;27;20137;-62
2023/04/01 17:45:09;;;;;;;19.63;4.85;;;;;;;;;;5083504;28;20597;-64